sensor_id;sensor_type;location;lat;lon;timestamp;pressure;altitude;pressure_sealevel;temperature;humidity
64095;BME280;50353;51.420;5.682;2022-12-18T00:01:02;102554.69;;;-4.18;85.06
64095;BME280;50353;51.420;5.682;2022-12-18T00:03:32;102555.75;;;-3.78;83.46
64095;BME280;50353;51.420;5.682;2022-12-18T00:05:58;102558.34;;;-4.10;82.64
64095;BME280;50353;51.420;5.682;2022-12-18T00:08:23;102560.16;;;-4.07;82.17
64095;BME280;50353;51.420;5.682;2022-12-18T00:10:48;102553.25;;;-4.07;82.11
64095;BME280;50353;51.420;5.682;2022-12-18T00:13:14;102555.28;;;-3.96;81.84
64095;BME280;50353;51.420;5.682;2022-12-18T00:15:39;102558.22;;;-4.14;80.91
64095;BME280;50353;51.420;5.682;2022-12-18T00:18:05;102563.69;;;-4.03;80.53
64095;BME280;50353;51.420;5.682;2022-12-18T00:20:34;102557.06;;;-4.24;79.17
64095;BME280;50353;51.420;5.682;2022-12-18T00:23:00;102561.13;;;-4.03;78.84
64095;BME280;50353;51.420;5.682;2022-12-18T00:25:25;102546.44;;;-4.64;79.22
64095;BME280;50353;51.420;5.682;2022-12-18T00:27:51;102543.00;;;-4.64;79.22
64095;BME280;50353;51.420;5.682;2022-12-18T00:30:16;102544.84;;;-4.60;80.81
64095;BME280;50353;51.420;5.682;2022-12-18T00:32:41;102544.16;;;-4.54;81.19
64095;BME280;50353;51.420;5.682;2022-12-18T00:35:07;102543.63;;;-4.43;80.47
64095;BME280;50353;51.420;5.682;2022-12-18T00:37:35;102541.44;;;-4.59;80.56
64095;BME280;50353;51.420;5.682;2022-12-18T00:40:01;102537.78;;;-4.95;81.51
64095;BME280;50353;51.420;5.682;2022-12-18T00:42:26;102533.88;;;-5.09;81.73
64095;BME280;50353;51.420;5.682;2022-12-18T00:45:10;102533.75;;;-4.57;81.17
64095;BME280;50353;51.420;5.682;2022-12-18T00:47:35;102532.13;;;-4.54;79.29
64095;BME280;50353;51.420;5.682;2022-12-18T00:50:00;102535.81;;;-4.46;79.45
64095;BME280;50353;51.420;5.682;2022-12-18T00:52:26;102531.78;;;-4.36;79.34
64095;BME280;50353;51.420;5.682;2022-12-18T00:54:51;102530.25;;;-4.29;78.70
64095;BME280;50353;51.420;5.682;2022-12-18T00:57:16;102527.13;;;-4.48;79.14
64095;BME280;50353;51.420;5.682;2022-12-18T00:59:41;102523.59;;;-4.51;79.42
64095;BME280;50353;51.420;5.682;2022-12-18T01:02:07;102531.00;;;-4.33;77.84
64095;BME280;50353;51.420;5.682;2022-12-18T01:04:32;102533.22;;;-4.75;79.40
64095;BME280;50353;51.420;5.682;2022-12-18T01:06:58;102532.19;;;-4.52;79.32
64095;BME280;50353;51.420;5.682;2022-12-18T01:09:23;102533.94;;;-4.21;78.73
64095;BME280;50353;51.420;5.682;2022-12-18T01:11:49;102548.84;;;-4.70;78.93
64095;BME280;50353;51.420;5.682;2022-12-18T01:14:14;102541.41;;;-4.61;79.21
64095;BME280;50353;51.420;5.682;2022-12-18T01:16:40;102541.03;;;-4.44;78.25
64095;BME280;50353;51.420;5.682;2022-12-18T01:19:05;102548.75;;;-4.44;77.81
64095;BME280;50353;51.420;5.682;2022-12-18T01:21:30;102547.41;;;-4.89;78.41
64095;BME280;50353;51.420;5.682;2022-12-18T01:23:56;102547.66;;;-4.81;79.55
64095;BME280;50353;51.420;5.682;2022-12-18T01:26:22;102555.19;;;-4.87;79.63
64095;BME280;50353;51.420;5.682;2022-12-18T01:28:47;102551.84;;;-4.85;79.66
64095;BME280;50353;51.420;5.682;2022-12-18T01:31:25;102544.38;;;-4.76;79.38
64095;BME280;50353;51.420;5.682;2022-12-18T01:33:51;102554.78;;;-4.72;79.53
64095;BME280;50353;51.420;5.682;2022-12-18T01:36:23;102549.94;;;-4.90;80.43
64095;BME280;50353;51.420;5.682;2022-12-18T01:38:49;102538.84;;;-4.59;78.73
64095;BME280;50353;51.420;5.682;2022-12-18T01:41:17;102541.75;;;-4.77;80.31
64095;BME280;50353;51.420;5.682;2022-12-18T01:43:50;102541.22;;;-4.94;80.28
64095;BME280;50353;51.420;5.682;2022-12-18T01:46:17;102539.91;;;-4.81;80.31
64095;BME280;50353;51.420;5.682;2022-12-18T01:48:44;102541.16;;;-4.68;78.84
64095;BME280;50353;51.420;5.682;2022-12-18T01:51:12;102547.25;;;-4.37;77.69
64095;BME280;50353;51.420;5.682;2022-12-18T01:53:39;102524.47;;;-4.80;77.59
64095;BME280;50353;51.420;5.682;2022-12-18T01:56:05;102535.38;;;-4.88;78.07
64095;BME280;50353;51.420;5.682;2022-12-18T01:58:44;102536.09;;;-4.93;79.02
64095;BME280;50353;51.420;5.682;2022-12-18T02:01:12;102540.41;;;-4.93;77.96
64095;BME280;50353;51.420;5.682;2022-12-18T02:03:39;102534.56;;;-4.87;78.46
64095;BME280;50353;51.420;5.682;2022-12-18T02:06:26;102535.91;;;-4.71;77.86
64095;BME280;50353;51.420;5.682;2022-12-18T02:09:18;102532.72;;;-5.19;77.41
64095;BME280;50353;51.420;5.682;2022-12-18T02:12:01;102513.88;;;-4.89;77.87
64095;BME280;50353;51.420;5.682;2022-12-18T02:14:45;102524.47;;;-4.80;77.41
64095;BME280;50353;51.420;5.682;2022-12-18T02:17:20;102536.00;;;-4.68;77.11
64095;BME280;50353;51.420;5.682;2022-12-18T02:20:21;102531.88;;;-5.18;78.43
64095;BME280;50353;51.420;5.682;2022-12-18T02:23:12;102530.78;;;-5.26;78.69
64095;BME280;50353;51.420;5.682;2022-12-18T02:28:32;102530.38;;;-4.84;78.23
64095;BME280;50353;51.420;5.682;2022-12-18T02:31:01;102528.16;;;-5.00;77.79
64095;BME280;50353;51.420;5.682;2022-12-18T02:33:29;102522.31;;;-5.22;78.75
64095;BME280;50353;51.420;5.682;2022-12-18T02:35:55;102528.66;;;-5.11;78.40
64095;BME280;50353;51.420;5.682;2022-12-18T02:38:23;102527.50;;;-4.93;76.98
64095;BME280;50353;51.420;5.682;2022-12-18T02:40:49;102523.25;;;-5.18;76.63
64095;BME280;50353;51.420;5.682;2022-12-18T02:43:16;102529.44;;;-5.13;76.38
64095;BME280;50353;51.420;5.682;2022-12-18T02:45:57;102522.63;;;-5.38;77.46
64095;BME280;50353;51.420;5.682;2022-12-18T02:48:26;102523.69;;;-5.32;77.36
64095;BME280;50353;51.420;5.682;2022-12-18T02:53:30;102508.19;;;-5.33;77.92
64095;BME280;50353;51.420;5.682;2022-12-18T02:58:50;102498.16;;;-5.24;78.45
64095;BME280;50353;51.420;5.682;2022-12-18T03:01:44;102503.31;;;-5.24;78.11
64095;BME280;50353;51.420;5.682;2022-12-18T03:04:22;102507.06;;;-5.41;79.96
64095;BME280;50353;51.420;5.682;2022-12-18T03:06:54;102501.22;;;-5.36;78.96
64095;BME280;50353;51.420;5.682;2022-12-18T03:09:33;102500.06;;;-5.18;80.27
64095;BME280;50353;51.420;5.682;2022-12-18T03:12:14;102493.91;;;-4.96;77.56
64095;BME280;50353;51.420;5.682;2022-12-18T03:15:00;102498.56;;;-5.12;76.75
64095;BME280;50353;51.420;5.682;2022-12-18T03:17:31;102482.63;;;-5.27;75.88
64095;BME280;50353;51.420;5.682;2022-12-18T03:20:00;102493.75;;;-5.28;76.76
64095;BME280;50353;51.420;5.682;2022-12-18T03:22:30;102484.63;;;-5.44;78.41
64095;BME280;50353;51.420;5.682;2022-12-18T03:24:58;102490.00;;;-5.38;80.62
64095;BME280;50353;51.420;5.682;2022-12-18T03:27:27;102476.72;;;-5.76;83.38
64095;BME280;50353;51.420;5.682;2022-12-18T03:30:01;102487.50;;;-5.62;82.84
64095;BME280;50353;51.420;5.682;2022-12-18T03:35:13;102470.13;;;-4.86;81.01
64095;BME280;50353;51.420;5.682;2022-12-18T03:37:42;102485.00;;;-4.77;80.67
64095;BME280;50353;51.420;5.682;2022-12-18T03:40:08;102479.69;;;-5.11;80.72
64095;BME280;50353;51.420;5.682;2022-12-18T03:42:52;102480.63;;;-4.80;80.80
64095;BME280;50353;51.420;5.682;2022-12-18T03:50:37;102477.47;;;-4.69;79.48
64095;BME280;50353;51.420;5.682;2022-12-18T03:56:11;102485.31;;;-4.95;78.01
64095;BME280;50353;51.420;5.682;2022-12-18T03:58:38;102477.84;;;-4.86;79.00
64095;BME280;50353;51.420;5.682;2022-12-18T04:01:06;102469.81;;;-4.66;78.28
64095;BME280;50353;51.420;5.682;2022-12-18T04:03:34;102471.09;;;-4.52;78.39
64095;BME280;50353;51.420;5.682;2022-12-18T04:06:01;102466.56;;;-4.89;77.98
64095;BME280;50353;51.420;5.682;2022-12-18T04:08:27;102455.66;;;-5.10;79.22
64095;BME280;50353;51.420;5.682;2022-12-18T04:10:53;102453.53;;;-5.23;80.48
64095;BME280;50353;51.420;5.682;2022-12-18T04:13:29;102438.31;;;-5.15;78.90
64095;BME280;50353;51.420;5.682;2022-12-18T04:15:55;102447.84;;;-4.84;77.37
64095;BME280;50353;51.420;5.682;2022-12-18T04:18:20;102444.63;;;-5.05;77.80
64095;BME280;50353;51.420;5.682;2022-12-18T04:20:45;102449.41;;;-5.18;78.62
64095;BME280;50353;51.420;5.682;2022-12-18T04:23:11;102445.06;;;-4.90;77.55
64095;BME280;50353;51.420;5.682;2022-12-18T04:25:36;102441.09;;;-4.79;79.10
64095;BME280;50353;51.420;5.682;2022-12-18T04:28:02;102433.56;;;-5.30;80.54
64095;BME280;50353;51.420;5.682;2022-12-18T04:30:27;102432.16;;;-4.90;80.86
64095;BME280;50353;51.420;5.682;2022-12-18T04:32:52;102435.94;;;-5.07;80.80
64095;BME280;50353;51.420;5.682;2022-12-18T04:35:17;102429.75;;;-5.13;81.58
64095;BME280;50353;51.420;5.682;2022-12-18T04:37:43;102422.72;;;-4.89;81.16
64095;BME280;50353;51.420;5.682;2022-12-18T04:40:08;102425.59;;;-4.79;81.04
64095;BME280;50353;51.420;5.682;2022-12-18T04:42:34;102419.81;;;-4.71;79.89
64095;BME280;50353;51.420;5.682;2022-12-18T04:44:59;102425.13;;;-4.96;81.28
64095;BME280;50353;51.420;5.682;2022-12-18T04:47:25;102428.63;;;-5.22;83.31
64095;BME280;50353;51.420;5.682;2022-12-18T04:49:50;102438.63;;;-5.04;82.23
64095;BME280;50353;51.420;5.682;2022-12-18T04:52:15;102436.66;;;-4.83;81.18
64095;BME280;50353;51.420;5.682;2022-12-18T04:54:41;102436.34;;;-4.94;82.26
64095;BME280;50353;51.420;5.682;2022-12-18T04:57:06;102446.44;;;-4.72;81.08
64095;BME280;50353;51.420;5.682;2022-12-18T04:59:31;102449.47;;;-4.86;80.57
64095;BME280;50353;51.420;5.682;2022-12-18T05:01:56;102446.16;;;-4.82;80.69
64095;BME280;50353;51.420;5.682;2022-12-18T05:04:22;102464.59;;;-4.98;80.03
64095;BME280;50353;51.420;5.682;2022-12-18T05:06:47;102471.78;;;-4.88;81.06
64095;BME280;50353;51.420;5.682;2022-12-18T05:09:12;102476.59;;;-5.00;81.76
64095;BME280;50353;51.420;5.682;2022-12-18T05:11:38;102484.59;;;-5.18;80.94
64095;BME280;50353;51.420;5.682;2022-12-18T05:14:03;102468.34;;;-4.87;81.94
64095;BME280;50353;51.420;5.682;2022-12-18T05:16:28;102477.63;;;-4.94;80.60
64095;BME280;50353;51.420;5.682;2022-12-18T05:18:53;102477.00;;;-4.86;80.81
64095;BME280;50353;51.420;5.682;2022-12-18T05:21:19;102474.06;;;-5.26;82.85
64095;BME280;50353;51.420;5.682;2022-12-18T05:23:44;102471.09;;;-5.38;83.58
64095;BME280;50353;51.420;5.682;2022-12-18T05:26:15;102470.38;;;-5.34;84.03
64095;BME280;50353;51.420;5.682;2022-12-18T05:28:40;102478.81;;;-5.66;84.48
64095;BME280;50353;51.420;5.682;2022-12-18T05:31:06;102470.66;;;-5.51;85.30
64095;BME280;50353;51.420;5.682;2022-12-18T05:33:33;102466.25;;;-5.55;85.27
64095;BME280;50353;51.420;5.682;2022-12-18T05:36:00;102459.88;;;-5.66;85.09
64095;BME280;50353;51.420;5.682;2022-12-18T05:38:27;102454.94;;;-5.60;85.47
64095;BME280;50353;51.420;5.682;2022-12-18T05:40:52;102452.53;;;-4.99;83.50
64095;BME280;50353;51.420;5.682;2022-12-18T05:43:19;102450.69;;;-5.03;84.46
64095;BME280;50353;51.420;5.682;2022-12-18T05:45:45;102447.28;;;-5.02;83.86
64095;BME280;50353;51.420;5.682;2022-12-18T05:48:11;102446.94;;;-5.13;83.81
64095;BME280;50353;51.420;5.682;2022-12-18T05:50:38;102454.19;;;-5.01;82.87
64095;BME280;50353;51.420;5.682;2022-12-18T05:53:04;102452.81;;;-4.90;83.62
64095;BME280;50353;51.420;5.682;2022-12-18T05:55:33;102436.75;;;-5.09;83.24
64095;BME280;50353;51.420;5.682;2022-12-18T05:57:59;102447.38;;;-4.99;83.65
64095;BME280;50353;51.420;5.682;2022-12-18T06:00:25;102445.47;;;-5.05;83.31
64095;BME280;50353;51.420;5.682;2022-12-18T06:02:51;102445.75;;;-4.67;81.81
64095;BME280;50353;51.420;5.682;2022-12-18T06:05:16;102442.13;;;-5.02;83.16
64095;BME280;50353;51.420;5.682;2022-12-18T06:07:41;102435.94;;;-4.79;82.11
64095;BME280;50353;51.420;5.682;2022-12-18T06:10:07;102436.28;;;-4.66;82.53
64095;BME280;50353;51.420;5.682;2022-12-18T06:12:32;102435.31;;;-4.71;82.34
64095;BME280;50353;51.420;5.682;2022-12-18T06:14:59;102432.94;;;-4.62;82.39
64095;BME280;50353;51.420;5.682;2022-12-18T06:17:29;102430.38;;;-4.93;83.06
64095;BME280;50353;51.420;5.682;2022-12-18T06:19:54;102420.94;;;-4.92;81.90
64095;BME280;50353;51.420;5.682;2022-12-18T06:22:20;102427.19;;;-5.13;84.17
64095;BME280;50353;51.420;5.682;2022-12-18T06:24:45;102420.84;;;-5.24;83.89
64095;BME280;50353;51.420;5.682;2022-12-18T06:27:10;102420.06;;;-5.21;85.54
64095;BME280;50353;51.420;5.682;2022-12-18T06:29:36;102428.19;;;-4.79;83.73
64095;BME280;50353;51.420;5.682;2022-12-18T06:32:01;102430.09;;;-5.02;84.12
64095;BME280;50353;51.420;5.682;2022-12-18T06:34:26;102438.94;;;-4.65;82.65
64095;BME280;50353;51.420;5.682;2022-12-18T06:36:52;102445.66;;;-4.70;82.91
64095;BME280;50353;51.420;5.682;2022-12-18T06:39:17;102435.22;;;-5.03;82.15
64095;BME280;50353;51.420;5.682;2022-12-18T06:41:42;102444.03;;;-4.66;82.87
64095;BME280;50353;51.420;5.682;2022-12-18T06:44:07;102436.91;;;-4.75;82.49
64095;BME280;50353;51.420;5.682;2022-12-18T06:46:33;102444.69;;;-4.73;82.27
64095;BME280;50353;51.420;5.682;2022-12-18T06:48:58;102446.31;;;-4.77;82.47
64095;BME280;50353;51.420;5.682;2022-12-18T06:51:23;102443.19;;;-4.65;82.21
64095;BME280;50353;51.420;5.682;2022-12-18T06:53:49;102432.00;;;-4.66;82.74
64095;BME280;50353;51.420;5.682;2022-12-18T06:56:15;102432.44;;;-4.81;83.08
64095;BME280;50353;51.420;5.682;2022-12-18T06:58:40;102423.78;;;-4.52;82.28
64095;BME280;50353;51.420;5.682;2022-12-18T07:01:08;102426.19;;;-5.18;81.55
64095;BME280;50353;51.420;5.682;2022-12-18T07:03:34;102423.34;;;-4.98;82.02
64095;BME280;50353;51.420;5.682;2022-12-18T07:05:59;102426.31;;;-4.84;81.96
64095;BME280;50353;51.420;5.682;2022-12-18T07:08:25;102423.34;;;-4.98;82.11
64095;BME280;50353;51.420;5.682;2022-12-18T07:10:50;102428.22;;;-5.07;80.79
64095;BME280;50353;51.420;5.682;2022-12-18T07:13:16;102431.72;;;-5.05;81.39
64095;BME280;50353;51.420;5.682;2022-12-18T07:15:42;102427.22;;;-5.40;82.19
64095;BME280;50353;51.420;5.682;2022-12-18T07:18:07;102429.84;;;-5.11;81.85
64095;BME280;50353;51.420;5.682;2022-12-18T07:20:33;102414.00;;;-5.23;81.82
64095;BME280;50353;51.420;5.682;2022-12-18T07:22:58;102414.84;;;-4.94;80.95
64095;BME280;50353;51.420;5.682;2022-12-18T07:25:23;102415.69;;;-4.95;82.14
64095;BME280;50353;51.420;5.682;2022-12-18T07:27:49;102415.41;;;-4.76;81.79
64095;BME280;50353;51.420;5.682;2022-12-18T07:30:14;102403.72;;;-4.93;81.61
64095;BME280;50353;51.420;5.682;2022-12-18T07:32:39;102387.38;;;-4.63;81.55
64095;BME280;50353;51.420;5.682;2022-12-18T07:35:05;102377.78;;;-4.67;80.58
64095;BME280;50353;51.420;5.682;2022-12-18T07:37:30;102364.06;;;-4.97;81.63
64095;BME280;50353;51.420;5.682;2022-12-18T07:39:55;102370.13;;;-4.96;83.27
64095;BME280;50353;51.420;5.682;2022-12-18T07:42:20;102373.25;;;-5.06;82.96
64095;BME280;50353;51.420;5.682;2022-12-18T07:44:59;102375.50;;;-4.87;82.87
64095;BME280;50353;51.420;5.682;2022-12-18T07:47:25;102380.66;;;-4.87;82.96
64095;BME280;50353;51.420;5.682;2022-12-18T07:49:50;102381.75;;;-4.79;82.31
64095;BME280;50353;51.420;5.682;2022-12-18T07:52:15;102367.53;;;-4.96;82.91
64095;BME280;50353;51.420;5.682;2022-12-18T07:54:41;102359.50;;;-5.07;83.92
64095;BME280;50353;51.420;5.682;2022-12-18T07:57:07;102359.19;;;-4.87;83.64
64095;BME280;50353;51.420;5.682;2022-12-18T07:59:32;102354.13;;;-4.83;83.12
64095;BME280;50353;51.420;5.682;2022-12-18T08:01:57;102342.84;;;-4.88;83.45
64095;BME280;50353;51.420;5.682;2022-12-18T08:04:24;102332.25;;;-4.97;84.38
64095;BME280;50353;51.420;5.682;2022-12-18T08:06:49;102344.22;;;-4.69;83.13
64095;BME280;50353;51.420;5.682;2022-12-18T08:09:14;102336.06;;;-4.52;83.34
64095;BME280;50353;51.420;5.682;2022-12-18T08:11:39;102333.03;;;-4.36;82.67
64095;BME280;50353;51.420;5.682;2022-12-18T08:14:05;102340.56;;;-4.44;83.01
64095;BME280;50353;51.420;5.682;2022-12-18T08:16:33;102336.69;;;-4.28;83.21
64095;BME280;50353;51.420;5.682;2022-12-18T08:18:59;102332.91;;;-4.05;82.65
64095;BME280;50353;51.420;5.682;2022-12-18T08:21:27;102329.31;;;-4.12;82.94
64095;BME280;50353;51.420;5.682;2022-12-18T08:23:55;102324.53;;;-4.32;83.82
64095;BME280;50353;51.420;5.682;2022-12-18T08:26:22;102340.16;;;-4.26;83.45
64095;BME280;50353;51.420;5.682;2022-12-18T08:28:48;102349.53;;;-4.31;84.14
64095;BME280;50353;51.420;5.682;2022-12-18T08:31:13;102338.78;;;-4.13;83.67
64095;BME280;50353;51.420;5.682;2022-12-18T08:33:40;102363.16;;;-4.01;83.38
64095;BME280;50353;51.420;5.682;2022-12-18T08:36:06;102359.22;;;-3.87;83.36
64095;BME280;50353;51.420;5.682;2022-12-18T08:38:32;102353.44;;;-3.75;82.92
64095;BME280;50353;51.420;5.682;2022-12-18T08:41:07;102336.75;;;-3.89;83.26
64095;BME280;50353;51.420;5.682;2022-12-18T08:43:33;102351.00;;;-3.69;83.68
64095;BME280;50353;51.420;5.682;2022-12-18T08:46:19;102352.41;;;-3.82;84.01
64095;BME280;50353;51.420;5.682;2022-12-18T08:48:45;102342.78;;;-3.52;83.02
64095;BME280;50353;51.420;5.682;2022-12-18T08:51:11;102337.84;;;-3.42;82.40
64095;BME280;50353;51.420;5.682;2022-12-18T08:53:37;102335.22;;;-3.43;82.58
64095;BME280;50353;51.420;5.682;2022-12-18T08:56:03;102322.84;;;-3.58;82.83
64095;BME280;50353;51.420;5.682;2022-12-18T08:58:29;102322.53;;;-3.32;82.60
64095;BME280;50353;51.420;5.682;2022-12-18T09:00:57;102314.50;;;-3.45;83.60
64095;BME280;50353;51.420;5.682;2022-12-18T09:03:24;102314.81;;;-3.31;83.13
64095;BME280;50353;51.420;5.682;2022-12-18T09:05:50;102311.19;;;-3.39;83.10
64095;BME280;50353;51.420;5.682;2022-12-18T09:08:15;102304.81;;;-3.12;82.62
64095;BME280;50353;51.420;5.682;2022-12-18T09:10:44;102307.47;;;-3.11;82.59
64095;BME280;50353;51.420;5.682;2022-12-18T09:13:11;102303.00;;;-3.16;82.83
64095;BME280;50353;51.420;5.682;2022-12-18T09:15:44;102295.38;;;-3.12;83.55
64095;BME280;50353;51.420;5.682;2022-12-18T09:18:15;102304.09;;;-3.07;83.15
64095;BME280;50353;51.420;5.682;2022-12-18T09:20:41;102316.50;;;-2.90;83.00
64095;BME280;50353;51.420;5.682;2022-12-18T09:23:07;102327.72;;;-2.88;82.89
64095;BME280;50353;51.420;5.682;2022-12-18T09:25:33;102324.25;;;-2.90;82.95
64095;BME280;50353;51.420;5.682;2022-12-18T09:28:05;102322.81;;;-2.74;81.93
64095;BME280;50353;51.420;5.682;2022-12-18T09:30:31;102326.25;;;-2.75;82.75
64095;BME280;50353;51.420;5.682;2022-12-18T09:32:58;102324.69;;;-2.67;82.47
64095;BME280;50353;51.420;5.682;2022-12-18T09:35:24;102326.34;;;-2.70;82.37
64095;BME280;50353;51.420;5.682;2022-12-18T09:37:49;102329.53;;;-2.84;83.44
64095;BME280;50353;51.420;5.682;2022-12-18T09:40:16;102324.31;;;-2.85;83.65
64095;BME280;50353;51.420;5.682;2022-12-18T09:42:46;102322.69;;;-2.82;83.58
64095;BME280;50353;51.420;5.682;2022-12-18T09:45:14;102331.56;;;-2.67;83.89
64095;BME280;50353;51.420;5.682;2022-12-18T09:47:42;102318.41;;;-2.80;84.23
64095;BME280;50353;51.420;5.682;2022-12-18T09:50:28;102310.84;;;-2.67;83.64
64095;BME280;50353;51.420;5.682;2022-12-18T09:52:56;102302.38;;;-2.62;84.07
64095;BME280;50353;51.420;5.682;2022-12-18T09:55:30;102300.59;;;-2.64;83.91
64095;BME280;50353;51.420;5.682;2022-12-18T09:58:06;102303.78;;;-2.78;85.15
64095;BME280;50353;51.420;5.682;2022-12-18T10:00:35;102292.66;;;-2.72;85.32
64095;BME280;50353;51.420;5.682;2022-12-18T10:03:09;102289.75;;;-2.42;84.30
64095;BME280;50353;51.420;5.682;2022-12-18T10:08:42;102272.47;;;-2.43;84.33
64095;BME280;50353;51.420;5.682;2022-12-18T10:13:56;102278.53;;;-2.41;83.53
64095;BME280;50353;51.420;5.682;2022-12-18T10:16:34;102285.13;;;-2.08;83.09
64095;BME280;50353;51.420;5.682;2022-12-18T10:19:05;102298.81;;;-2.15;82.90
64095;BME280;50353;51.420;5.682;2022-12-18T10:21:45;102297.31;;;-2.00;83.20
64095;BME280;50353;51.420;5.682;2022-12-18T10:27:24;102286.34;;;-1.84;81.75
64095;BME280;50353;51.420;5.682;2022-12-18T10:29:51;102283.81;;;-1.81;81.93
64095;BME280;50353;51.420;5.682;2022-12-18T10:32:19;102274.91;;;-1.98;82.42
64095;BME280;50353;51.420;5.682;2022-12-18T10:34:47;102279.47;;;-1.80;82.10
64095;BME280;50353;51.420;5.682;2022-12-18T10:37:18;102271.66;;;-1.85;81.58
64095;BME280;50353;51.420;5.682;2022-12-18T10:39:46;102276.97;;;-1.76;81.43
64095;BME280;50353;51.420;5.682;2022-12-18T10:42:19;102261.75;;;-1.51;80.74
64095;BME280;50353;51.420;5.682;2022-12-18T10:44:45;102260.97;;;-1.42;79.65
64095;BME280;50353;51.420;5.682;2022-12-18T10:47:14;102248.72;;;-1.54;81.11
64095;BME280;50353;51.420;5.682;2022-12-18T10:49:48;102238.13;;;-1.71;81.87
64095;BME280;50353;51.420;5.682;2022-12-18T10:52:22;102227.00;;;-1.62;82.34
64095;BME280;50353;51.420;5.682;2022-12-18T10:54:52;102238.44;;;-1.46;80.55
64095;BME280;50353;51.420;5.682;2022-12-18T11:02:43;102224.41;;;-1.64;81.93
64095;BME280;50353;51.420;5.682;2022-12-18T11:05:29;102218.63;;;-1.43;80.63
64095;BME280;50353;51.420;5.682;2022-12-18T11:07:55;102220.25;;;-1.51;80.98
64095;BME280;50353;51.420;5.682;2022-12-18T11:10:26;102206.44;;;-1.50;80.98
64095;BME280;50353;51.420;5.682;2022-12-18T11:12:53;102208.22;;;-1.46;81.40
64095;BME280;50353;51.420;5.682;2022-12-18T11:15:21;102209.94;;;-1.45;80.86
64095;BME280;50353;51.420;5.682;2022-12-18T11:17:50;102210.22;;;-1.20;80.37
64095;BME280;50353;51.420;5.682;2022-12-18T11:20:20;102214.38;;;-1.38;81.79
64095;BME280;50353;51.420;5.682;2022-12-18T11:23:05;102217.81;;;-1.37;81.35
64095;BME280;50353;51.420;5.682;2022-12-18T11:25:36;102210.94;;;-1.33;80.39
64095;BME280;50353;51.420;5.682;2022-12-18T11:28:04;102205.78;;;-1.32;81.55
64095;BME280;50353;51.420;5.682;2022-12-18T11:30:32;102201.47;;;-1.28;81.14
64095;BME280;50353;51.420;5.682;2022-12-18T11:33:14;102184.06;;;-1.40;81.53
64095;BME280;50353;51.420;5.682;2022-12-18T11:35:55;102181.72;;;-1.15;81.71
64095;BME280;50353;51.420;5.682;2022-12-18T11:38:42;102169.56;;;-1.21;81.18
64095;BME280;50353;51.420;5.682;2022-12-18T11:43:55;102176.59;;;-1.09;79.01
64095;BME280;50353;51.420;5.682;2022-12-18T11:46:29;102167.59;;;-1.42;81.42
64095;BME280;50353;51.420;5.682;2022-12-18T11:49:06;102167.88;;;-1.17;81.31
64095;BME280;50353;51.420;5.682;2022-12-18T11:52:02;102168.75;;;-1.17;80.71
64095;BME280;50353;51.420;5.682;2022-12-18T11:54:24;102158.50;;;-1.05;80.05
64095;BME280;50353;51.420;5.682;2022-12-18T11:57:12;102151.63;;;-0.98;79.40
64095;BME280;50353;51.420;5.682;2022-12-18T12:10:45;102143.22;;;-0.64;78.20
64095;BME280;50353;51.420;5.682;2022-12-18T12:13:43;102142.13;;;-0.93;79.04
64095;BME280;50353;51.420;5.682;2022-12-18T12:22:07;102125.59;;;-1.06;79.25
64095;BME280;50353;51.420;5.682;2022-12-18T12:24:49;102134.44;;;-0.83;79.19
64095;BME280;50353;51.420;5.682;2022-12-18T12:36:25;102109.44;;;-0.71;78.54
64095;BME280;50353;51.420;5.682;2022-12-18T12:39:00;102092.13;;;-0.75;77.12
64095;BME280;50353;51.420;5.682;2022-12-18T12:41:30;102107.72;;;-0.67;78.02
64095;BME280;50353;51.420;5.682;2022-12-18T12:44:20;102105.13;;;-0.69;77.28
64095;BME280;50353;51.420;5.682;2022-12-18T12:46:48;102090.41;;;-0.70;78.03
64095;BME280;50353;51.420;5.682;2022-12-18T12:49:17;102092.22;;;-0.56;77.80
64095;BME280;50353;51.420;5.682;2022-12-18T12:51:46;102094.06;;;-0.38;76.62
64095;BME280;50353;51.420;5.682;2022-12-18T12:54:23;102091.44;;;-0.43;76.62
64095;BME280;50353;51.420;5.682;2022-12-18T13:02:20;102073.19;;;-0.52;77.40
64095;BME280;50353;51.420;5.682;2022-12-18T13:05:11;102071.56;;;-0.41;76.46
64095;BME280;50353;51.420;5.682;2022-12-18T13:07:49;102062.00;;;-0.40;77.28
64095;BME280;50353;51.420;5.682;2022-12-18T13:13:11;102059.22;;;-0.76;78.74
64095;BME280;50353;51.420;5.682;2022-12-18T13:15:44;102052.31;;;-0.72;77.98
64095;BME280;50353;51.420;5.682;2022-12-18T13:20:46;102042.94;;;-0.45;77.37
64095;BME280;50353;51.420;5.682;2022-12-18T13:31:00;102038.44;;;-0.74;77.64
64095;BME280;50353;51.420;5.682;2022-12-18T13:36:00;102034.34;;;-0.29;77.36
64095;BME280;50353;51.420;5.682;2022-12-18T13:46:04;102038.56;;;-0.54;77.80
64095;BME280;50353;51.420;5.682;2022-12-18T13:48:33;102027.34;;;-0.50;76.96
64095;BME280;50353;51.420;5.682;2022-12-18T13:53:33;102032.53;;;-0.48;77.25
64095;BME280;50353;51.420;5.682;2022-12-18T13:55:59;102021.31;;;-0.44;77.59
64095;BME280;50353;51.420;5.682;2022-12-18T13:58:25;102019.59;;;-0.41;77.38
64095;BME280;50353;51.420;5.682;2022-12-18T14:00:50;102013.56;;;-0.30;75.92
64095;BME280;50353;51.420;5.682;2022-12-18T14:03:24;102002.31;;;-0.29;76.22
64095;BME280;50353;51.420;5.682;2022-12-18T14:05:58;102013.56;;;-0.29;76.45
64095;BME280;50353;51.420;5.682;2022-12-18T14:08:27;102009.22;;;-0.39;76.91
64095;BME280;50353;51.420;5.682;2022-12-18T14:10:56;102024.78;;;-0.42;77.64
64095;BME280;50353;51.420;5.682;2022-12-18T14:13:28;102004.88;;;-0.42;76.57
64095;BME280;50353;51.420;5.682;2022-12-18T14:15:55;102022.19;;;-0.36;77.63
64095;BME280;50353;51.420;5.682;2022-12-18T14:18:26;102019.66;;;-0.30;76.42
64095;BME280;50353;51.420;5.682;2022-12-18T14:20:57;102033.53;;;-0.22;76.74
64095;BME280;50353;51.420;5.682;2022-12-18T14:23:35;102026.53;;;-0.37;77.13
64095;BME280;50353;51.420;5.682;2022-12-18T14:26:25;102008.31;;;-0.44;77.17
64095;BME280;50353;51.420;5.682;2022-12-18T14:28:53;102017.00;;;-0.38;77.49
64095;BME280;50353;51.420;5.682;2022-12-18T14:31:24;102012.63;;;-0.49;78.91
64095;BME280;50353;51.420;5.682;2022-12-18T14:33:50;102012.66;;;-0.39;77.30